sensor_id;sensor_type;location;lat;lon;timestamp;P1;P2;P0
47709;PMS7003;33473;51.640;5.892;2023-01-19T00:12:04;24.37;22.25;12.98
47709;PMS7003;33473;51.640;5.892;2023-01-19T00:25:23;24.97;22.68;12.98
47709;PMS7003;33473;51.640;5.892;2023-01-19T00:38:43;24.25;22.14;12.54
47709;PMS7003;33473;51.640;5.892;2023-01-19T00:52:03;22.45;21.59;12.33
47709;PMS7003;33473;51.640;5.892;2023-01-19T01:05:22;23.77;22.25;12.98
47709;PMS7003;33473;51.640;5.892;2023-01-19T01:18:42;22.81;21.92;12.65
47709;PMS7003;33473;51.640;5.892;2023-01-19T01:32:02;23.05;21.92;12.11
47709;PMS7003;33473;51.640;5.892;2023-01-19T01:45:21;23.41;21.92;12.0
47709;PMS7003;33473;51.640;5.892;2023-01-19T01:58:41;22.69;21.92;11.89
47709;PMS7003;33473;51.640;5.892;2023-01-19T02:12:01;22.21;21.26;11.67
47709;PMS7003;33473;51.640;5.892;2023-01-19T02:25:20;20.77;20.94;11.67
47709;PMS7003;33473;51.640;5.892;2023-01-19T02:38:40;22.57;22.14;11.78
47709;PMS7003;33473;51.640;5.892;2023-01-19T02:51:59;22.69;21.81;11.89
47709;PMS7003;33473;51.640;5.892;2023-01-19T03:05:19;26.17;23.01;12.87
47709;PMS7003;33473;51.640;5.892;2023-01-19T03:18:39;27.01;24.21;13.53
47709;PMS7003;33473;51.640;5.892;2023-01-19T03:31:58;31.33;27.04;14.62
47709;PMS7003;33473;51.640;5.892;2023-01-19T03:45:18;29.17;25.73;14.07
47709;PMS7003;33473;51.640;5.892;2023-01-19T03:58:38;26.05;24.21;13.96
47709;PMS7003;33473;51.640;5.892;2023-01-19T04:11:58;28.21;25.52;13.96
47709;PMS7003;33473;51.640;5.892;2023-01-19T04:25:17;31.33;27.37;15.05
47709;PMS7003;33473;51.640;5.892;2023-01-19T04:38:37;28.45;25.41;14.51
47709;PMS7003;33473;51.640;5.892;2023-01-19T04:51:57;23.53;22.68;12.33
47709;PMS7003;33473;51.640;5.892;2023-01-19T05:05:16;16.45;18.21;9.6
47709;PMS7003;33473;51.640;5.892;2023-01-19T05:18:36;11.05;13.31;7.75
47709;PMS7003;33473;51.640;5.892;2023-01-19T05:31:56;10.57;12.87;6.99
47709;PMS7003;33473;51.640;5.892;2023-01-19T05:45:15;8.89;11.35;6.66
47709;PMS7003;33473;51.640;5.892;2023-01-19T05:58:35;7.09;9.6;5.57
47709;PMS7003;33473;51.640;5.892;2023-01-19T06:11:55;6.61;9.17;5.68
47709;PMS7003;33473;51.640;5.892;2023-01-19T06:25:14;10.21;11.13;6.11
47709;PMS7003;33473;51.640;5.892;2023-01-19T06:38:34;12.61;14.72;7.75
47709;PMS7003;33473;51.640;5.892;2023-01-19T06:51:54;15.61;16.25;8.4
47709;PMS7003;33473;51.640;5.892;2023-01-19T07:05:13;17.77;18.21;9.27
47709;PMS7003;33473;51.640;5.892;2023-01-19T07:18:33;22.93;21.37;12.22
47709;PMS7003;33473;51.640;5.892;2023-01-19T07:31:53;31.33;26.93;15.27
47709;PMS7003;33473;51.640;5.892;2023-01-19T07:45:12;36.5;30.64;17.23
47709;PMS7003;33473;51.640;5.892;2023-01-19T07:58:32;39.86;32.27;17.99
47709;PMS7003;33473;51.640;5.892;2023-01-19T08:11:52;41.9;34.13;18.87
47709;PMS7003;33473;51.640;5.892;2023-01-19T08:25:11;42.62;34.13;18.76
47709;PMS7003;33473;51.640;5.892;2023-01-19T08:38:31;40.22;32.6;18.21
47709;PMS7003;33473;51.640;5.892;2023-01-19T08:51:51;39.98;32.6;18.21
47709;PMS7003;33473;51.640;5.892;2023-01-19T09:05:10;40.58;32.71;17.78
47709;PMS7003;33473;51.640;5.892;2023-01-19T09:18:30;38.9;31.73;17.23
47709;PMS7003;33473;51.640;5.892;2023-01-19T09:31:50;32.77;28.02;15.6
47709;PMS7003;33473;51.640;5.892;2023-01-19T09:45:10;34.22;29.11;16.03
47709;PMS7003;33473;51.640;5.892;2023-01-19T09:58:29;39.62;32.27;17.23
47709;PMS7003;33473;51.640;5.892;2023-01-19T10:11:49;38.06;31.29;16.8
47709;PMS7003;33473;51.640;5.892;2023-01-19T10:25:09;42.62;32.05;17.12
47709;PMS7003;33473;51.640;5.892;2023-01-19T10:38:28;42.5;33.25;17.56
47709;PMS7003;33473;51.640;5.892;2023-01-19T10:51:48;41.42;33.36;17.99
47709;PMS7003;33473;51.640;5.892;2023-01-19T11:05:08;42.74;32.71;17.99
47709;PMS7003;33473;51.640;5.892;2023-01-19T11:18:27;37.34;30.42;16.69
47709;PMS7003;33473;51.640;5.892;2023-01-19T11:31:47;34.7;29.11;16.69
47709;PMS7003;33473;51.640;5.892;2023-01-19T11:45:07;32.53;26.93;15.49
47709;PMS7003;33473;51.640;5.892;2023-01-19T11:58:26;29.41;25.08;14.83
47709;PMS7003;33473;51.640;5.892;2023-01-19T12:11:46;31.21;25.3;14.51
47709;PMS7003;33473;51.640;5.892;2023-01-19T12:25:06;26.05;23.44;14.18
47709;PMS7003;33473;51.640;5.892;2023-01-19T12:38:25;24.73;21.81;13.42
47709;PMS7003;33473;51.640;5.892;2023-01-19T12:51:45;22.09;20.5;12.87
47709;PMS7003;33473;51.640;5.892;2023-01-19T13:05:05;23.77;21.81;12.87
47709;PMS7003;33473;51.640;5.892;2023-01-19T13:18:24;20.05;20.17;11.78
47709;PMS7003;33473;51.640;5.892;2023-01-19T13:31:44;18.13;19.19;11.02
47709;PMS7003;33473;51.640;5.892;2023-01-19T13:45:04;19.45;19.41;11.89
47709;PMS7003;33473;51.640;5.892;2023-01-19T13:58:23;19.45;19.08;12.0
47709;PMS7003;33473;51.640;5.892;2023-01-19T14:11:43;17.77;18.65;11.02
47709;PMS7003;33473;51.640;5.892;2023-01-19T14:25:03;20.05;19.41;11.67
47709;PMS7003;33473;51.640;5.892;2023-01-19T14:38:22;21.73;20.07;12.65
47709;PMS7003;33473;51.640;5.892;2023-01-19T14:51:42;22.69;21.48;12.98
47709;PMS7003;33473;51.640;5.892;2023-01-19T15:05:02;24.97;21.92;13.09
47709;PMS7003;33473;51.640;5.892;2023-01-19T15:18:21;24.01;22.35;12.98
47709;PMS7003;33473;51.640;5.892;2023-01-19T15:31:41;27.37;24.21;13.74
47709;PMS7003;33473;51.640;5.892;2023-01-19T15:45:01;26.77;23.88;13.42
47709;PMS7003;33473;51.640;5.892;2023-01-19T15:58:20;26.41;22.35;13.09
47709;PMS7003;33473;51.640;5.892;2023-01-19T16:11:40;24.61;21.59;12.44
47709;PMS7003;33473;51.640;5.892;2023-01-19T16:25:00;26.29;22.03;12.65
47709;PMS7003;33473;51.640;5.892;2023-01-19T16:38:19;26.17;23.34;12.87
47709;PMS7003;33473;51.640;5.892;2023-01-19T16:51:39;26.53;23.23;12.54
47709;PMS7003;33473;51.640;5.892;2023-01-19T17:04:59;25.69;23.23;12.54
47709;PMS7003;33473;51.640;5.892;2023-01-19T17:18:18;30.13;24.97;13.31
47709;PMS7003;33473;51.640;5.892;2023-01-19T17:31:38;29.29;25.41;13.74
47709;PMS7003;33473;51.640;5.892;2023-01-19T17:44:58;28.45;25.08;13.42
47709;PMS7003;33473;51.640;5.892;2023-01-19T17:58:17;30.37;25.73;13.63
47709;PMS7003;33473;51.640;5.892;2023-01-19T18:11:37;30.85;25.73;13.63
47709;PMS7003;33473;51.640;5.892;2023-01-19T18:24:57;33.98;28.57;15.05
47709;PMS7003;33473;51.640;5.892;2023-01-19T18:38:16;34.22;28.13;14.83
47709;PMS7003;33473;51.640;5.892;2023-01-19T18:51:36;33.13;28.02;14.94
47709;PMS7003;33473;51.640;5.892;2023-01-19T19:04:56;34.94;29.0;15.38
47709;PMS7003;33473;51.640;5.892;2023-01-19T19:18:15;32.41;28.13;14.62
47709;PMS7003;33473;51.640;5.892;2023-01-19T19:31:35;34.34;28.24;15.05
47709;PMS7003;33473;51.640;5.892;2023-01-19T19:44:55;33.01;28.13;14.94
47709;PMS7003;33473;51.640;5.892;2023-01-19T19:58:14;35.3;29.66;15.71
47709;PMS7003;33473;51.640;5.892;2023-01-19T20:11:34;34.94;29.55;15.16
47709;PMS7003;33473;51.640;5.892;2023-01-19T20:24:54;36.98;29.88;15.92
47709;PMS7003;33473;51.640;5.892;2023-01-19T20:38:13;37.58;30.64;16.25
47709;PMS7003;33473;51.640;5.892;2023-01-19T20:51:33;39.38;32.05;17.56
47709;PMS7003;33473;51.640;5.892;2023-01-19T21:04:53;38.42;30.64;16.58
47709;PMS7003;33473;51.640;5.892;2023-01-19T21:18:12;37.22;30.2;16.14
47709;PMS7003;33473;51.640;5.892;2023-01-19T21:31:32;36.5;30.09;15.6
47709;PMS7003;33473;51.640;5.892;2023-01-19T21:44:52;38.3;31.51;16.03
47709;PMS7003;33473;51.640;5.892;2023-01-19T21:58:11;38.18;30.75;16.9
47709;PMS7003;33473;51.640;5.892;2023-01-19T22:11:31;38.66;30.96;16.25
47709;PMS7003;33473;51.640;5.892;2023-01-19T22:24:51;37.58;31.18;16.36
47709;PMS7003;33473;51.640;5.892;2023-01-19T22:38:10;40.82;32.82;16.9
47709;PMS7003;33473;51.640;5.892;2023-01-19T22:51:30;42.26;33.58;17.01
47709;PMS7003;33473;51.640;5.892;2023-01-19T23:04:50;40.82;33.47;17.34
47709;PMS7003;33473;51.640;5.892;2023-01-19T23:18:09;40.22;32.82;17.34
47709;PMS7003;33473;51.640;5.892;2023-01-19T23:31:29;40.34;32.82;16.8
47709;PMS7003;33473;51.640;5.892;2023-01-19T23:44:49;38.66;31.51;16.36
47709;PMS7003;33473;51.640;5.892;2023-01-19T23:58:08;39.38;31.95;16.36
